This is the latest recevied weather packets stored in our database for station/object KO5MO-11. If no packets are shown the sender has not sent any weather packets the latest 10 day(s).
| Time | Temp. | Humidity | Pressure | Rain* | Wind** | Luminosity | Snow |
|---|---|---|---|---|---|---|---|
| 1777507235 | 24.44° C | 36% | 1008.9 hPa | - | - | 760 W/m² | - |
| 1777506635 | 25° C | 35% | 1008.8 hPa | - | - | 777 W/m² | - |
| 1777506036 | 26.11° C | 36% | 1008.9 hPa | - | - | 795 W/m² | - |
| 1777505435 | 24.44° C | 40% | 1008.7 hPa | - | - | 762 W/m² | - |
| 1777504836 | 23.89° C | 36% | 1008.9 hPa | - | - | 757 W/m² | - |
| 1777504236 | 24.44° C | 36% | 1009 hPa | - | - | 763 W/m² | - |
| 1777503636 | 25° C | 35% | 1008.8 hPa | - | - | 777 W/m² | - |
| 1777503035 | 26.11° C | 35% | 1009 hPa | - | - | 798 W/m² | - |
| 1777502435 | 24.44° C | 40% | 1009.1 hPa | - | - | 767 W/m² | - |
| 1777501836 | 23.89° C | 36% | 1009.2 hPa | - | - | 755 W/m² | - |
| 1777501236 | 24.44° C | 36% | 1009.5 hPa | - | - | 766 W/m² | - |
| 1777500635 | 26.11° C | 34% | 1009.8 hPa | - | - | 794 W/m² | - |
| 1777500035 | 25.56° C | 39% | 1009.8 hPa | - | - | 781 W/m² | - |
| 1777499436 | 23.89° C | 36% | 1010.1 hPa | - | - | 757 W/m² | - |
| 1777498835 | 24.44° C | 36% | 1010.4 hPa | - | - | 768 W/m² | - |
| 1777498235 | 25.56° C | 35% | 1010.5 hPa | - | - | 785 W/m² | - |
| 1777497636 | 26.11° C | 37% | 1010.6 hPa | - | - | 791 W/m² | - |
| 1777497035 | 24.44° C | 36% | 1010.6 hPa | - | - | 760 W/m² | - |
| 1777496435 | 24.44° C | 36% | 1010.6 hPa | - | - | 760 W/m² | - |
| 1777495835 | 23.89° C | 37% | 1010.8 hPa | - | - | 759 W/m² | - |
| 1777495235 | 26.67° C | 34% | 1010.9 hPa | - | - | 806 W/m² | - |
| 1777494636 | 25° C | 40% | 1011.2 hPa | - | - | 772 W/m² | - |
| 1777494036 | 24.44° C | 35% | 1011.2 hPa | - | - | 765 W/m² | - |
| 1777493436 | 24.44° C | 35% | 1011.3 hPa | - | - | 768 W/m² | - |
| 1777492836 | 26.11° C | 34% | 1011.5 hPa | - | - | 793 W/m² | - |
* Rain since midnight (hover to see other rain measurements)
** Current wind speed in m/s (hover to see current wind gust speed)